sensor_id;sensor_type;location;lat;lon;timestamp;P1;durP1;ratioP1;P2;durP2;ratioP2
28766;SDS011;15921;52.034;20.650;2022-10-30T00:00:37;37.85;;;16.55;;
28766;SDS011;15921;52.034;20.650;2022-10-30T00:03:03;34.13;;;18.30;;
28766;SDS011;15921;52.034;20.650;2022-10-30T00:05:30;35.33;;;18.25;;
28766;SDS011;15921;52.034;20.650;2022-10-30T00:07:56;32.67;;;17.55;;
28766;SDS011;15921;52.034;20.650;2022-10-30T00:10:24;34.75;;;19.48;;
28766;SDS011;15921;52.034;20.650;2022-10-30T00:12:50;32.70;;;16.48;;
28766;SDS011;15921;52.034;20.650;2022-10-30T00:15:16;33.70;;;16.98;;
28766;SDS011;15921;52.034;20.650;2022-10-30T00:17:42;39.38;;;18.63;;
28766;SDS011;15921;52.034;20.650;2022-10-30T00:20:08;35.88;;;18.50;;
28766;SDS011;15921;52.034;20.650;2022-10-30T00:22:34;34.75;;;17.38;;
28766;SDS011;15921;52.034;20.650;2022-10-30T00:25:00;30.80;;;18.52;;
28766;SDS011;15921;52.034;20.650;2022-10-30T00:27:27;34.85;;;18.38;;
28766;SDS011;15921;52.034;20.650;2022-10-30T00:29:52;30.92;;;16.83;;
28766;SDS011;15921;52.034;20.650;2022-10-30T00:32:18;34.45;;;17.63;;
28766;SDS011;15921;52.034;20.650;2022-10-30T00:34:44;33.17;;;18.13;;
28766;SDS011;15921;52.034;20.650;2022-10-30T00:37:09;40.17;;;17.63;;
28766;SDS011;15921;52.034;20.650;2022-10-30T00:39:35;35.55;;;18.17;;
28766;SDS011;15921;52.034;20.650;2022-10-30T00:42:01;33.08;;;18.27;;
28766;SDS011;15921;52.034;20.650;2022-10-30T00:47:27;35.50;;;19.23;;
28766;SDS011;15921;52.034;20.650;2022-10-30T00:52:42;39.08;;;17.52;;
28766;SDS011;15921;52.034;20.650;2022-10-30T00:55:18;34.50;;;17.83;;
28766;SDS011;15921;52.034;20.650;2022-10-30T00:57:54;39.05;;;19.38;;
28766;SDS011;15921;52.034;20.650;2022-10-30T01:00:21;36.88;;;19.55;;
28766;SDS011;15921;52.034;20.650;2022-10-30T01:02:48;39.30;;;18.70;;
28766;SDS011;15921;52.034;20.650;2022-10-30T01:05:15;39.72;;;18.67;;
28766;SDS011;15921;52.034;20.650;2022-10-30T01:07:44;40.67;;;19.92;;
28766;SDS011;15921;52.034;20.650;2022-10-30T01:10:10;30.90;;;18.20;;
28766;SDS011;15921;52.034;20.650;2022-10-30T01:12:37;34.42;;;18.63;;
28766;SDS011;15921;52.034;20.650;2022-10-30T01:15:04;41.80;;;19.05;;
28766;SDS011;15921;52.034;20.650;2022-10-30T01:36:32;35.00;;;17.33;;
28766;SDS011;15921;52.034;20.650;2022-10-30T01:39:22;33.85;;;16.45;;
28766;SDS011;15921;52.034;20.650;2022-10-30T01:41:50;29.92;;;16.13;;
28766;SDS011;15921;52.034;20.650;2022-10-30T01:52:28;30.55;;;14.98;;
28766;SDS011;15921;52.034;20.650;2022-10-30T01:57:36;31.10;;;15.38;;
28766;SDS011;15921;52.034;20.650;2022-10-30T02:00:06;38.83;;;16.02;;
28766;SDS011;15921;52.034;20.650;2022-10-30T02:02:34;27.92;;;15.63;;
28766;SDS011;15921;52.034;20.650;2022-10-30T02:05:00;29.92;;;14.85;;
28766;SDS011;15921;52.034;20.650;2022-10-30T02:07:27;24.58;;;13.75;;
28766;SDS011;15921;52.034;20.650;2022-10-30T02:09:53;25.80;;;13.50;;
28766;SDS011;15921;52.034;20.650;2022-10-30T02:12:19;29.83;;;14.38;;
28766;SDS011;15921;52.034;20.650;2022-10-30T02:14:47;31.67;;;15.27;;
28766;SDS011;15921;52.034;20.650;2022-10-30T02:17:17;26.60;;;14.32;;
28766;SDS011;15921;52.034;20.650;2022-10-30T02:19:43;26.27;;;13.55;;
28766;SDS011;15921;52.034;20.650;2022-10-30T02:22:09;32.08;;;14.48;;
28766;SDS011;15921;52.034;20.650;2022-10-30T02:24:35;30.05;;;14.27;;
28766;SDS011;15921;52.034;20.650;2022-10-30T02:27:01;31.63;;;14.23;;
28766;SDS011;15921;52.034;20.650;2022-10-30T02:29:27;30.27;;;15.50;;
28766;SDS011;15921;52.034;20.650;2022-10-30T02:31:53;23.60;;;13.73;;
28766;SDS011;15921;52.034;20.650;2022-10-30T02:34:19;29.25;;;14.32;;
28766;SDS011;15921;52.034;20.650;2022-10-30T02:36:45;26.23;;;12.63;;
28766;SDS011;15921;52.034;20.650;2022-10-30T02:39:11;22.50;;;13.05;;
28766;SDS011;15921;52.034;20.650;2022-10-30T02:41:37;31.77;;;14.13;;
28766;SDS011;15921;52.034;20.650;2022-10-30T02:44:03;23.17;;;12.73;;
28766;SDS011;15921;52.034;20.650;2022-10-30T02:46:30;24.55;;;12.88;;
28766;SDS011;15921;52.034;20.650;2022-10-30T02:48:56;23.63;;;13.13;;
28766;SDS011;15921;52.034;20.650;2022-10-30T02:51:22;31.35;;;15.30;;
28766;SDS011;15921;52.034;20.650;2022-10-30T02:53:48;24.55;;;12.80;;
28766;SDS011;15921;52.034;20.650;2022-10-30T02:56:14;29.63;;;15.35;;
28766;SDS011;15921;52.034;20.650;2022-10-30T02:58:40;22.90;;;13.00;;
28766;SDS011;15921;52.034;20.650;2022-10-30T03:01:10;26.30;;;13.02;;
28766;SDS011;15921;52.034;20.650;2022-10-30T03:03:37;26.88;;;14.25;;
28766;SDS011;15921;52.034;20.650;2022-10-30T03:06:03;20.13;;;12.25;;
28766;SDS011;15921;52.034;20.650;2022-10-30T03:08:31;26.23;;;13.02;;
28766;SDS011;15921;52.034;20.650;2022-10-30T03:10:58;32.25;;;15.25;;
28766;SDS011;15921;52.034;20.650;2022-10-30T03:13:25;24.63;;;12.60;;
28766;SDS011;15921;52.034;20.650;2022-10-30T03:15:51;20.48;;;13.10;;
28766;SDS011;15921;52.034;20.650;2022-10-30T03:18:17;27.55;;;13.93;;
28766;SDS011;15921;52.034;20.650;2022-10-30T03:20:43;27.17;;;12.40;;
28766;SDS011;15921;52.034;20.650;2022-10-30T03:23:08;25.02;;;13.50;;
28766;SDS011;15921;52.034;20.650;2022-10-30T03:25:34;31.13;;;14.85;;
28766;SDS011;15921;52.034;20.650;2022-10-30T03:28:00;28.98;;;15.82;;
28766;SDS011;15921;52.034;20.650;2022-10-30T03:30:25;27.38;;;15.00;;
28766;SDS011;15921;52.034;20.650;2022-10-30T03:32:51;34.33;;;16.02;;
28766;SDS011;15921;52.034;20.650;2022-10-30T03:35:17;34.45;;;15.48;;
28766;SDS011;15921;52.034;20.650;2022-10-30T03:37:43;31.35;;;14.73;;
28766;SDS011;15921;52.034;20.650;2022-10-30T03:40:08;25.25;;;13.75;;
28766;SDS011;15921;52.034;20.650;2022-10-30T03:42:38;20.73;;;13.05;;
28766;SDS011;15921;52.034;20.650;2022-10-30T03:45:05;26.70;;;13.68;;
28766;SDS011;15921;52.034;20.650;2022-10-30T03:47:31;27.02;;;13.70;;
28766;SDS011;15921;52.034;20.650;2022-10-30T03:49:56;29.83;;;14.93;;
28766;SDS011;15921;52.034;20.650;2022-10-30T03:52:22;24.77;;;15.32;;
28766;SDS011;15921;52.034;20.650;2022-10-30T03:54:48;31.50;;;16.92;;
28766;SDS011;15921;52.034;20.650;2022-10-30T03:57:13;34.17;;;16.38;;
28766;SDS011;15921;52.034;20.650;2022-10-30T03:59:39;29.95;;;16.45;;
28766;SDS011;15921;52.034;20.650;2022-10-30T04:02:05;28.38;;;16.83;;
28766;SDS011;15921;52.034;20.650;2022-10-30T04:04:30;33.42;;;16.40;;
28766;SDS011;15921;52.034;20.650;2022-10-30T04:06:56;26.45;;;15.07;;
28766;SDS011;15921;52.034;20.650;2022-10-30T04:09:22;31.20;;;15.77;;
28766;SDS011;15921;52.034;20.650;2022-10-30T04:11:47;34.58;;;17.30;;
28766;SDS011;15921;52.034;20.650;2022-10-30T04:14:13;35.78;;;17.83;;
28766;SDS011;15921;52.034;20.650;2022-10-30T04:16:39;30.63;;;16.67;;
28766;SDS011;15921;52.034;20.650;2022-10-30T04:19:04;38.45;;;17.08;;
28766;SDS011;15921;52.034;20.650;2022-10-30T04:21:30;29.00;;;14.10;;
28766;SDS011;15921;52.034;20.650;2022-10-30T04:23:56;30.08;;;16.27;;
28766;SDS011;15921;52.034;20.650;2022-10-30T04:26:22;32.78;;;16.98;;
28766;SDS011;15921;52.034;20.650;2022-10-30T04:28:48;32.90;;;17.17;;
28766;SDS011;15921;52.034;20.650;2022-10-30T04:31:13;28.80;;;14.32;;
28766;SDS011;15921;52.034;20.650;2022-10-30T04:33:39;34.08;;;17.77;;
28766;SDS011;15921;52.034;20.650;2022-10-30T04:36:05;37.22;;;17.38;;
28766;SDS011;15921;52.034;20.650;2022-10-30T04:38:31;27.40;;;15.05;;
28766;SDS011;15921;52.034;20.650;2022-10-30T04:40:57;29.70;;;15.68;;
28766;SDS011;15921;52.034;20.650;2022-10-30T04:43:22;26.00;;;14.57;;
28766;SDS011;15921;52.034;20.650;2022-10-30T04:45:48;30.05;;;15.73;;
28766;SDS011;15921;52.034;20.650;2022-10-30T04:48:15;33.63;;;16.45;;
28766;SDS011;15921;52.034;20.650;2022-10-30T04:50:42;28.77;;;16.42;;
28766;SDS011;15921;52.034;20.650;2022-10-30T04:53:26;38.55;;;17.33;;
28766;SDS011;15921;52.034;20.650;2022-10-30T04:55:52;28.25;;;16.77;;
28766;SDS011;15921;52.034;20.650;2022-10-30T04:58:18;39.20;;;18.42;;
28766;SDS011;15921;52.034;20.650;2022-10-30T05:00:44;32.45;;;18.50;;
28766;SDS011;15921;52.034;20.650;2022-10-30T05:03:22;30.83;;;15.05;;
28766;SDS011;15921;52.034;20.650;2022-10-30T05:08:40;31.40;;;15.32;;
28766;SDS011;15921;52.034;20.650;2022-10-30T05:11:06;30.60;;;16.42;;
28766;SDS011;15921;52.034;20.650;2022-10-30T05:13:31;33.72;;;15.57;;
28766;SDS011;15921;52.034;20.650;2022-10-30T05:15:57;34.03;;;14.77;;
28766;SDS011;15921;52.034;20.650;2022-10-30T05:18:23;28.50;;;15.85;;
28766;SDS011;15921;52.034;20.650;2022-10-30T05:20:48;29.40;;;15.23;;
28766;SDS011;15921;52.034;20.650;2022-10-30T05:23:14;34.22;;;16.30;;
28766;SDS011;15921;52.034;20.650;2022-10-30T05:25:40;32.25;;;15.90;;
28766;SDS011;15921;52.034;20.650;2022-10-30T05:28:06;37.63;;;17.25;;
28766;SDS011;15921;52.034;20.650;2022-10-30T05:30:33;27.20;;;15.23;;
28766;SDS011;15921;52.034;20.650;2022-10-30T05:33:00;33.78;;;17.45;;
28766;SDS011;15921;52.034;20.650;2022-10-30T05:35:28;29.70;;;17.25;;
28766;SDS011;15921;52.034;20.650;2022-10-30T05:37:57;26.92;;;14.55;;
28766;SDS011;15921;52.034;20.650;2022-10-30T05:40:27;32.65;;;16.90;;
28766;SDS011;15921;52.034;20.650;2022-10-30T05:42:53;30.67;;;17.33;;
28766;SDS011;15921;52.034;20.650;2022-10-30T05:45:18;32.55;;;17.52;;
28766;SDS011;15921;52.034;20.650;2022-10-30T05:47:54;26.30;;;15.27;;
28766;SDS011;15921;52.034;20.650;2022-10-30T05:50:20;29.95;;;17.83;;
28766;SDS011;15921;52.034;20.650;2022-10-30T05:52:46;38.35;;;18.92;;
28766;SDS011;15921;52.034;20.650;2022-10-30T05:55:12;31.35;;;16.20;;
28766;SDS011;15921;52.034;20.650;2022-10-30T05:57:38;24.33;;;15.70;;
28766;SDS011;15921;52.034;20.650;2022-10-30T06:00:04;31.05;;;15.45;;
28766;SDS011;15921;52.034;20.650;2022-10-30T06:02:30;37.50;;;17.65;;
28766;SDS011;15921;52.034;20.650;2022-10-30T06:04:56;26.02;;;14.05;;
28766;SDS011;15921;52.034;20.650;2022-10-30T06:07:22;27.73;;;16.67;;
28766;SDS011;15921;52.034;20.650;2022-10-30T06:09:48;31.30;;;17.20;;
28766;SDS011;15921;52.034;20.650;2022-10-30T06:12:13;30.60;;;16.80;;
28766;SDS011;15921;52.034;20.650;2022-10-30T06:14:39;38.10;;;16.90;;
28766;SDS011;15921;52.034;20.650;2022-10-30T06:17:05;28.38;;;15.98;;
28766;SDS011;15921;52.034;20.650;2022-10-30T06:19:30;33.00;;;16.23;;
28766;SDS011;15921;52.034;20.650;2022-10-30T06:21:56;39.67;;;20.60;;
28766;SDS011;15921;52.034;20.650;2022-10-30T06:24:22;33.75;;;18.77;;
28766;SDS011;15921;52.034;20.650;2022-10-30T06:26:48;38.25;;;20.48;;
28766;SDS011;15921;52.034;20.650;2022-10-30T06:29:15;39.13;;;22.88;;
28766;SDS011;15921;52.034;20.650;2022-10-30T06:31:41;36.15;;;21.00;;
28766;SDS011;15921;52.034;20.650;2022-10-30T06:34:07;39.28;;;21.80;;
28766;SDS011;15921;52.034;20.650;2022-10-30T06:36:32;29.27;;;17.73;;
28766;SDS011;15921;52.034;20.650;2022-10-30T06:38:58;27.42;;;16.25;;
28766;SDS011;15921;52.034;20.650;2022-10-30T06:41:24;31.38;;;15.57;;
28766;SDS011;15921;52.034;20.650;2022-10-30T06:43:50;40.97;;;20.33;;
28766;SDS011;15921;52.034;20.650;2022-10-30T06:46:15;38.03;;;21.10;;
28766;SDS011;15921;52.034;20.650;2022-10-30T06:48:41;41.47;;;21.05;;
28766;SDS011;15921;52.034;20.650;2022-10-30T06:51:07;36.97;;;20.17;;
28766;SDS011;15921;52.034;20.650;2022-10-30T06:53:32;39.50;;;21.40;;
28766;SDS011;15921;52.034;20.650;2022-10-30T06:56:02;38.55;;;19.88;;
28766;SDS011;15921;52.034;20.650;2022-10-30T06:58:28;38.25;;;20.50;;
28766;SDS011;15921;52.034;20.650;2022-10-30T07:00:54;42.22;;;20.83;;
28766;SDS011;15921;52.034;20.650;2022-10-30T07:03:20;34.70;;;18.50;;
28766;SDS011;15921;52.034;20.650;2022-10-30T07:05:46;37.63;;;19.48;;
28766;SDS011;15921;52.034;20.650;2022-10-30T07:08:12;35.25;;;20.20;;
28766;SDS011;15921;52.034;20.650;2022-10-30T07:10:38;36.60;;;19.08;;
28766;SDS011;15921;52.034;20.650;2022-10-30T07:13:04;35.17;;;18.30;;
28766;SDS011;15921;52.034;20.650;2022-10-30T07:15:30;34.85;;;18.90;;
28766;SDS011;15921;52.034;20.650;2022-10-30T07:17:57;37.30;;;19.48;;
28766;SDS011;15921;52.034;20.650;2022-10-30T07:20:25;31.35;;;17.40;;
28766;SDS011;15921;52.034;20.650;2022-10-30T07:22:52;28.73;;;16.23;;
28766;SDS011;15921;52.034;20.650;2022-10-30T07:25:18;34.22;;;17.48;;
28766;SDS011;15921;52.034;20.650;2022-10-30T07:27:45;31.98;;;17.33;;
28766;SDS011;15921;52.034;20.650;2022-10-30T07:30:13;29.23;;;15.63;;
28766;SDS011;15921;52.034;20.650;2022-10-30T07:32:43;23.30;;;13.27;;
28766;SDS011;15921;52.034;20.650;2022-10-30T07:35:10;24.25;;;13.45;;
28766;SDS011;15921;52.034;20.650;2022-10-30T07:37:37;23.75;;;11.88;;
28766;SDS011;15921;52.034;20.650;2022-10-30T07:40:04;23.00;;;11.93;;
28766;SDS011;15921;52.034;20.650;2022-10-30T07:42:31;20.95;;;11.73;;
28766;SDS011;15921;52.034;20.650;2022-10-30T07:44:57;20.17;;;12.18;;
28766;SDS011;15921;52.034;20.650;2022-10-30T07:47:23;21.70;;;12.13;;
28766;SDS011;15921;52.034;20.650;2022-10-30T07:49:49;19.88;;;11.57;;
28766;SDS011;15921;52.034;20.650;2022-10-30T07:52:15;18.98;;;10.93;;
28766;SDS011;15921;52.034;20.650;2022-10-30T07:54:41;18.60;;;11.27;;
28766;SDS011;15921;52.034;20.650;2022-10-30T07:57:07;18.00;;;10.40;;
28766;SDS011;15921;52.034;20.650;2022-10-30T07:59:32;19.30;;;11.07;;
28766;SDS011;15921;52.034;20.650;2022-10-30T08:01:58;20.98;;;11.45;;
28766;SDS011;15921;52.034;20.650;2022-10-30T08:04:27;23.17;;;10.40;;
28766;SDS011;15921;52.034;20.650;2022-10-30T08:06:53;17.58;;;10.23;;
28766;SDS011;15921;52.034;20.650;2022-10-30T08:09:18;20.17;;;9.90;;
28766;SDS011;15921;52.034;20.650;2022-10-30T08:11:44;14.82;;;9.35;;
28766;SDS011;15921;52.034;20.650;2022-10-30T08:14:10;18.52;;;9.35;;
28766;SDS011;15921;52.034;20.650;2022-10-30T08:16:35;18.83;;;9.18;;
28766;SDS011;15921;52.034;20.650;2022-10-30T08:19:01;13.35;;;8.20;;
28766;SDS011;15921;52.034;20.650;2022-10-30T08:21:27;16.73;;;7.55;;
28766;SDS011;15921;52.034;20.650;2022-10-30T08:23:53;13.65;;;7.45;;
28766;SDS011;15921;52.034;20.650;2022-10-30T08:26:19;19.33;;;7.55;;
28766;SDS011;15921;52.034;20.650;2022-10-30T08:28:44;10.65;;;6.28;;
28766;SDS011;15921;52.034;20.650;2022-10-30T08:31:10;13.38;;;6.43;;
28766;SDS011;15921;52.034;20.650;2022-10-30T08:33:36;11.95;;;5.80;;
28766;SDS011;15921;52.034;20.650;2022-10-30T08:36:01;10.50;;;5.93;;
28766;SDS011;15921;52.034;20.650;2022-10-30T08:38:28;10.13;;;5.32;;
28766;SDS011;15921;52.034;20.650;2022-10-30T08:40:54;11.00;;;5.90;;
28766;SDS011;15921;52.034;20.650;2022-10-30T08:43:19;10.75;;;6.25;;
28766;SDS011;15921;52.034;20.650;2022-10-30T08:45:46;13.18;;;5.72;;
28766;SDS011;15921;52.034;20.650;2022-10-30T08:48:12;11.40;;;5.70;;
28766;SDS011;15921;52.034;20.650;2022-10-30T08:50:40;9.30;;;4.57;;
28766;SDS011;15921;52.034;20.650;2022-10-30T08:53:10;9.85;;;5.25;;
28766;SDS011;15921;52.034;20.650;2022-10-30T08:55:38;12.93;;;5.40;;
28766;SDS011;15921;52.034;20.650;2022-10-30T08:58:03;9.70;;;4.38;;
28766;SDS011;15921;52.034;20.650;2022-10-30T09:00:29;9.88;;;5.13;;
28766;SDS011;15921;52.034;20.650;2022-10-30T09:02:56;10.55;;;4.47;;
28766;SDS011;15921;52.034;20.650;2022-10-30T09:05:21;9.35;;;4.40;;
28766;SDS011;15921;52.034;20.650;2022-10-30T09:07:47;9.32;;;4.30;;
28766;SDS011;15921;52.034;20.650;2022-10-30T09:10:13;7.60;;;4.38;;
28766;SDS011;15921;52.034;20.650;2022-10-30T09:12:40;8.55;;;4.03;;
28766;SDS011;15921;52.034;20.650;2022-10-30T09:15:06;7.00;;;4.20;;
28766;SDS011;15921;52.034;20.650;2022-10-30T09:17:32;5.90;;;3.55;;
28766;SDS011;15921;52.034;20.650;2022-10-30T09:19:57;6.78;;;3.95;;
28766;SDS011;15921;52.034;20.650;2022-10-30T09:22:23;7.82;;;4.07;;
28766;SDS011;15921;52.034;20.650;2022-10-30T09:24:49;12.10;;;3.80;;
28766;SDS011;15921;52.034;20.650;2022-10-30T09:27:15;8.00;;;4.10;;
28766;SDS011;15921;52.034;20.650;2022-10-30T09:29:40;11.73;;;4.20;;
28766;SDS011;15921;52.034;20.650;2022-10-30T09:32:06;6.90;;;3.88;;
28766;SDS011;15921;52.034;20.650;2022-10-30T09:34:34;5.57;;;3.30;;
28766;SDS011;15921;52.034;20.650;2022-10-30T09:37:00;8.40;;;3.80;;
28766;SDS011;15921;52.034;20.650;2022-10-30T09:39:26;6.53;;;3.58;;
28766;SDS011;15921;52.034;20.650;2022-10-30T09:48:19;6.68;;;3.20;;
28766;SDS011;15921;52.034;20.650;2022-10-30T09:50:39;9.32;;;3.00;;
28766;SDS011;15921;52.034;20.650;2022-10-30T09:53:32;7.93;;;3.05;;
28766;SDS011;15921;52.034;20.650;2022-10-30T09:56:30;5.40;;;3.17;;
28766;SDS011;15921;52.034;20.650;2022-10-30T10:04:43;7.50;;;3.33;;
28766;SDS011;15921;52.034;20.650;2022-10-30T10:09:54;5.88;;;3.03;;
28766;SDS011;15921;52.034;20.650;2022-10-30T10:12:39;7.45;;;3.50;;
28766;SDS011;15921;52.034;20.650;2022-10-30T10:15:10;8.38;;;3.33;;
28766;SDS011;15921;52.034;20.650;2022-10-30T10:17:57;5.20;;;3.05;;
28766;SDS011;15921;52.034;20.650;2022-10-30T10:20:32;7.20;;;3.35;;
28766;SDS011;15921;52.034;20.650;2022-10-30T10:23:09;9.00;;;3.85;;
28766;SDS011;15921;52.034;20.650;2022-10-30T10:25:52;7.10;;;3.28;;
28766;SDS011;15921;52.034;20.650;2022-10-30T10:31:21;14.02;;;4.13;;
28766;SDS011;15921;52.034;20.650;2022-10-30T10:55:52;5.18;;;2.75;;
28766;SDS011;15921;52.034;20.650;2022-10-30T10:58:31;3.65;;;2.33;;
28766;SDS011;15921;52.034;20.650;2022-10-30T11:01:23;6.45;;;2.83;;
28766;SDS011;15921;52.034;20.650;2022-10-30T11:04:13;8.95;;;2.85;;
28766;SDS011;15921;52.034;20.650;2022-10-30T11:06:49;7.45;;;4.15;;
28766;SDS011;15921;52.034;20.650;2022-10-30T11:11:46;5.63;;;2.65;;
28766;SDS011;15921;52.034;20.650;2022-10-30T11:14:14;4.50;;;2.38;;
28766;SDS011;15921;52.034;20.650;2022-10-30T11:19:23;7.53;;;2.45;;
28766;SDS011;15921;52.034;20.650;2022-10-30T11:21:50;5.53;;;2.42;;
28766;SDS011;15921;52.034;20.650;2022-10-30T11:24:32;6.35;;;2.55;;
28766;SDS011;15921;52.034;20.650;2022-10-30T11:29:58;5.15;;;2.70;;
28766;SDS011;15921;52.034;20.650;2022-10-30T11:32:29;6.55;;;3.00;;
28766;SDS011;15921;52.034;20.650;2022-10-30T11:37:32;9.98;;;2.50;;
28766;SDS011;15921;52.034;20.650;2022-10-30T11:40:04;7.65;;;2.90;;
28766;SDS011;15921;52.034;20.650;2022-10-30T11:42:30;10.07;;;3.60;;
28766;SDS011;15921;52.034;20.650;2022-10-30T11:44:56;17.45;;;9.13;;
28766;SDS011;15921;52.034;20.650;2022-10-30T11:47:28;11.65;;;6.00;;
28766;SDS011;15921;52.034;20.650;2022-10-30T11:50:06;11.15;;;4.43;;
28766;SDS011;15921;52.034;20.650;2022-10-30T11:52:46;8.10;;;4.60;;
28766;SDS011;15921;52.034;20.650;2022-10-30T11:57:51;9.25;;;3.47;;
28766;SDS011;15921;52.034;20.650;2022-10-30T12:00:22;9.32;;;4.10;;
28766;SDS011;15921;52.034;20.650;2022-10-30T12:02:53;8.25;;;3.90;;
28766;SDS011;15921;52.034;20.650;2022-10-30T12:10:32;5.72;;;3.58;;
28766;SDS011;15921;52.034;20.650;2022-10-30T12:13:19;6.63;;;3.60;;
28766;SDS011;15921;52.034;20.650;2022-10-30T12:15:47;7.00;;;3.10;;
28766;SDS011;15921;52.034;20.650;2022-10-30T12:18:24;9.35;;;3.40;;
28766;SDS011;15921;52.034;20.650;2022-10-30T12:20:52;4.20;;;2.90;;
28766;SDS011;15921;52.034;20.650;2022-10-30T12:23:23;6.43;;;2.75;;
28766;SDS011;15921;52.034;20.650;2022-10-30T12:25:53;4.85;;;2.78;;
28766;SDS011;15921;52.034;20.650;2022-10-30T12:28:24;8.02;;;3.03;;
28766;SDS011;15921;52.034;20.650;2022-10-30T12:31:03;4.72;;;2.50;;
28766;SDS011;15921;52.034;20.650;2022-10-30T12:33:49;6.55;;;2.72;;
28766;SDS011;15921;52.034;20.650;2022-10-30T12:36:19;4.53;;;2.63;;
28766;SDS011;15921;52.034;20.650;2022-10-30T12:38:57;8.68;;;3.08;;
28766;SDS011;15921;52.034;20.650;2022-10-30T12:41:50;5.80;;;3.10;;
28766;SDS011;15921;52.034;20.650;2022-10-30T12:44:31;7.30;;;3.08;;
28766;SDS011;15921;52.034;20.650;2022-10-30T12:49:51;5.50;;;2.42;;
28766;SDS011;15921;52.034;20.650;2022-10-30T12:54:59;9.67;;;3.43;;
28766;SDS011;15921;52.034;20.650;2022-10-30T13:00:27;7.55;;;2.88;;
28766;SDS011;15921;52.034;20.650;2022-10-30T13:03:47;12.35;;;5.13;;
28766;SDS011;15921;52.034;20.650;2022-10-30T13:06:16;8.65;;;4.13;;
28766;SDS011;15921;52.034;20.650;2022-10-30T13:11:51;3.60;;;2.10;;
28766;SDS011;15921;52.034;20.650;2022-10-30T13:14:28;8.00;;;2.28;;
28766;SDS011;15921;52.034;20.650;2022-10-30T13:17:00;4.57;;;2.17;;
28766;SDS011;15921;52.034;20.650;2022-10-30T13:19:26;6.45;;;3.58;;
28766;SDS011;15921;52.034;20.650;2022-10-30T13:24:32;5.00;;;2.28;;
28766;SDS011;15921;52.034;20.650;2022-10-30T13:27:26;5.55;;;2.33;;
28766;SDS011;15921;52.034;20.650;2022-10-30T13:30:14;6.10;;;2.20;;
28766;SDS011;15921;52.034;20.650;2022-10-30T13:41:10;4.90;;;2.15;;
28766;SDS011;15921;52.034;20.650;2022-10-30T13:43:43;7.13;;;2.65;;
28766;SDS011;15921;52.034;20.650;2022-10-30T13:54:28;3.92;;;2.35;;
28766;SDS011;15921;52.034;20.650;2022-10-30T13:57:02;3.63;;;2.33;;
28766;SDS011;15921;52.034;20.650;2022-10-30T14:02:33;7.78;;;2.70;;
28766;SDS011;15921;52.034;20.650;2022-10-30T14:08:19;10.25;;;4.05;;
28766;SDS011;15921;52.034;20.650;2022-10-30T14:10:57;10.73;;;4.03;;
28766;SDS011;15921;52.034;20.650;2022-10-30T14:13:25;5.85;;;3.00;;
28766;SDS011;15921;52.034;20.650;2022-10-30T14:19:27;7.07;;;3.20;;
28766;SDS011;15921;52.034;20.650;2022-10-30T14:21:53;10.32;;;3.38;;
28766;SDS011;15921;52.034;20.650;2022-10-30T14:24:21;8.90;;;4.38;;
28766;SDS011;15921;52.034;20.650;2022-10-30T14:34:42;12.88;;;3.97;;
28766;SDS011;15921;52.034;20.650;2022-10-30T14:37:14;4.70;;;2.72;;
28766;SDS011;15921;52.034;20.650;2022-10-30T14:39:43;8.98;;;2.97;;
28766;SDS011;15921;52.034;20.650;2022-10-30T14:42:22;6.22;;;2.90;;
28766;SDS011;15921;52.034;20.650;2022-10-30T14:50:12;19.83;;;8.43;;
28766;SDS011;15921;52.034;20.650;2022-10-30T14:55:49;16.55;;;7.53;;
28766;SDS011;15921;52.034;20.650;2022-10-30T14:58:20;17.08;;;8.98;;
28766;SDS011;15921;52.034;20.650;2022-10-30T15:03:33;16.17;;;6.25;;
28766;SDS011;15921;52.034;20.650;2022-10-30T15:06:23;14.77;;;7.47;;
28766;SDS011;15921;52.034;20.650;2022-10-30T15:09:16;11.63;;;5.97;;
28766;SDS011;15921;52.034;20.650;2022-10-30T15:12:04;15.77;;;6.93;;
28766;SDS011;15921;52.034;20.650;2022-10-30T15:14:44;18.38;;;8.02;;
28766;SDS011;15921;52.034;20.650;2022-10-30T15:17:15;21.58;;;9.73;;
28766;SDS011;15921;52.034;20.650;2022-10-30T15:19:48;21.65;;;11.93;;
28766;SDS011;15921;52.034;20.650;2022-10-30T15:22:15;27.00;;;13.07;;
28766;SDS011;15921;52.034;20.650;2022-10-30T15:24:44;19.73;;;9.93;;
28766;SDS011;15921;52.034;20.650;2022-10-30T15:27:13;25.50;;;11.65;;
28766;SDS011;15921;52.034;20.650;2022-10-30T15:29:49;17.17;;;9.32;;
28766;SDS011;15921;52.034;20.650;2022-10-30T15:32:19;33.05;;;16.73;;
28766;SDS011;15921;52.034;20.650;2022-10-30T15:34:59;34.70;;;16.67;;
28766;SDS011;15921;52.034;20.650;2022-10-30T15:37:29;38.90;;;19.15;;
28766;SDS011;15921;52.034;20.650;2022-10-30T15:40:09;24.75;;;13.43;;
28766;SDS011;15921;52.034;20.650;2022-10-30T15:42:39;21.48;;;9.93;;
28766;SDS011;15921;52.034;20.650;2022-10-30T15:45:10;17.35;;;9.25;;
28766;SDS011;15921;52.034;20.650;2022-10-30T15:47:43;23.98;;;12.27;;
28766;SDS011;15921;52.034;20.650;2022-10-30T15:50:11;34.58;;;17.45;;
28766;SDS011;15921;52.034;20.650;2022-10-30T15:52:38;29.42;;;16.08;;
28766;SDS011;15921;52.034;20.650;2022-10-30T15:55:08;31.70;;;16.42;;
28766;SDS011;15921;52.034;20.650;2022-10-30T15:57:43;35.83;;;17.45;;
28766;SDS011;15921;52.034;20.650;2022-10-30T16:00:53;41.22;;;21.65;;
28766;SDS011;15921;52.034;20.650;2022-10-30T16:03:18;28.85;;;16.20;;
28766;SDS011;15921;52.034;20.650;2022-10-30T16:05:44;34.25;;;18.08;;
28766;SDS011;15921;52.034;20.650;2022-10-30T16:08:15;36.70;;;20.15;;
28766;SDS011;15921;52.034;20.650;2022-10-30T16:10:48;30.45;;;16.60;;
28766;SDS011;15921;52.034;20.650;2022-10-30T16:13:17;40.95;;;20.75;;
28766;SDS011;15921;52.034;20.650;2022-10-30T16:15:55;36.42;;;18.27;;
28766;SDS011;15921;52.034;20.650;2022-10-30T16:18:22;37.45;;;20.65;;
28766;SDS011;15921;52.034;20.650;2022-10-30T16:20:54;39.17;;;21.67;;
28766;SDS011;15921;52.034;20.650;2022-10-30T16:23:22;32.03;;;17.95;;
28766;SDS011;15921;52.034;20.650;2022-10-30T16:25:55;28.67;;;15.93;;
28766;SDS011;15921;52.034;20.650;2022-10-30T16:30:56;30.15;;;17.13;;
28766;SDS011;15921;52.034;20.650;2022-10-30T16:33:28;29.52;;;16.85;;
28766;SDS011;15921;52.034;20.650;2022-10-30T16:35:56;80.07;;;36.35;;
28766;SDS011;15921;52.034;20.650;2022-10-30T16:38:22;51.25;;;26.45;;
28766;SDS011;15921;52.034;20.650;2022-10-30T16:40:50;46.92;;;24.77;;
28766;SDS011;15921;52.034;20.650;2022-10-30T16:43:23;41.65;;;23.88;;
28766;SDS011;15921;52.034;20.650;2022-10-30T16:45:55;35.35;;;20.13;;
28766;SDS011;15921;52.034;20.650;2022-10-30T16:48:53;37.97;;;21.08;;
28766;SDS011;15921;52.034;20.650;2022-10-30T16:51:21;38.38;;;21.55;;
28766;SDS011;15921;52.034;20.650;2022-10-30T16:53:48;37.33;;;20.23;;
28766;SDS011;15921;52.034;20.650;2022-10-30T16:56:28;33.13;;;19.27;;
28766;SDS011;15921;52.034;20.650;2022-10-30T16:59:05;41.10;;;20.63;;
28766;SDS011;15921;52.034;20.650;2022-10-30T17:01:37;32.45;;;19.25;;
28766;SDS011;15921;52.034;20.650;2022-10-30T17:04:03;33.42;;;19.85;;
28766;SDS011;15921;52.034;20.650;2022-10-30T17:09:46;30.25;;;16.25;;